createdAt,value
2019-05-01T00:00:15.259Z,27.84
2019-05-01T00:01:02.643Z,27.84
2019-05-01T00:02:02.880Z,24.71
2019-05-01T00:03:03.710Z,27.39
2019-05-01T00:04:03.681Z,30.86
2019-05-01T00:05:03.643Z,29.74
2019-05-01T00:06:03.468Z,27.99
2019-05-01T00:07:03.388Z,28.48
2019-05-01T00:08:03.185Z,28.26
2019-05-01T00:09:03.328Z,28.42
2019-05-01T00:10:03.278Z,31.52
2019-05-01T00:11:03.139Z,26.02
2019-05-01T00:12:03.302Z,26.39
2019-05-01T00:13:03.372Z,25.31
2019-05-01T00:14:03.338Z,26.44
2019-05-01T00:15:03.628Z,25.65
2019-05-01T00:16:03.155Z,29.12
2019-05-01T00:17:03.290Z,31.21
2019-05-01T00:18:03.618Z,26.75
2019-05-01T00:19:02.036Z,26.68
2019-05-01T00:20:03.686Z,29.59
2019-05-01T00:21:03.045Z,26.79
2019-05-01T00:22:02.927Z,31.96
2019-05-01T00:23:02.975Z,29.06
2019-05-01T00:24:03.248Z,30.69
2019-05-01T00:25:02.901Z,26.06
2019-05-01T00:26:02.843Z,25.98
2019-05-01T00:27:03.156Z,35.84
2019-05-01T00:28:02.801Z,32.56
2019-05-01T00:29:02.995Z,27.03
2019-05-01T00:30:03.759Z,28.86
2019-05-01T00:31:02.924Z,29.76
2019-05-01T00:32:02.822Z,32.27
2019-05-01T00:33:03.717Z,29.74
2019-05-01T00:34:03.659Z,27.94
2019-05-01T00:35:03.874Z,32.24
2019-05-01T00:36:03.689Z,34.45
2019-05-01T00:37:03.600Z,30.16
2019-05-01T00:38:03.421Z,33.07
2019-05-01T00:39:03.649Z,33.98
2019-05-01T00:40:03.590Z,34.26
2019-05-01T00:41:03.379Z,36.84
2019-05-01T00:42:03.223Z,36.76
2019-05-01T00:43:03.283Z,32.57
2019-05-01T00:44:03.293Z,31.08
2019-05-01T00:45:03.297Z,33.18
2019-05-01T00:46:03.923Z,29.75
2019-05-01T00:47:02.972Z,32.99
2019-05-01T00:48:03.640Z,28.04
2019-05-01T00:49:03.438Z,28.04
2019-05-01T00:50:03.295Z,32.25
2019-05-01T00:51:03.156Z,32.25
2019-05-01T00:52:03.047Z,27.79
2019-05-01T00:53:02.981Z,28.66
2019-05-01T00:54:02.951Z,26.12
2019-05-01T00:55:03.440Z,31.06
2019-05-01T00:56:03.146Z,30.35
2019-05-01T00:57:03.137Z,27.51
2019-05-01T00:58:03.289Z,27.59
2019-05-01T00:59:03.050Z,27.39
2019-05-01T01:00:03.392Z,31.09
2019-05-01T01:01:03.157Z,30.2
2019-05-01T01:02:03.163Z,31.08
2019-05-01T01:03:02.905Z,29.5
2019-05-01T01:04:02.674Z,27.82
2019-05-01T01:05:02.899Z,28.31
2019-05-01T01:06:03.240Z,33.98
2019-05-01T01:07:02.763Z,30.21
2019-05-01T01:08:02.943Z,31.31
2019-05-01T01:09:02.915Z,29.13
2019-05-01T01:10:03.000Z,31.74
2019-05-01T01:11:03.700Z,28.38
2019-05-01T01:12:03.589Z,29.54
2019-05-01T01:13:02.825Z,29.48
2019-05-01T01:14:03.409Z,32.48
2019-05-01T01:15:03.000Z,29.45
2019-05-01T01:16:04.169Z,27.79
2019-05-01T01:17:03.659Z,30.47
2019-05-01T01:18:03.426Z,35.13
2019-05-01T01:19:02.968Z,29.22
2019-05-01T01:20:03.733Z,30.64
2019-05-01T01:21:03.557Z,30.82
2019-05-01T01:22:03.691Z,28.91
2019-05-01T01:23:03.433Z,30.12
2019-05-01T01:24:03.670Z,27.6
2019-05-01T01:25:03.306Z,29.54
2019-05-01T01:26:03.465Z,30.26
2019-05-01T01:27:03.214Z,34.5
2019-05-01T01:28:03.234Z,32.04
2019-05-01T01:29:03.160Z,28.85
2019-05-01T01:30:03.551Z,29.59
2019-05-01T01:31:03.233Z,27.5
2019-05-01T01:32:03.399Z,33.65
2019-05-01T01:33:03.397Z,30.1
2019-05-01T01:34:03.235Z,32.86
2019-05-01T01:35:03.060Z,28.43
2019-05-01T01:36:03.110Z,32.06
2019-05-01T01:37:03.016Z,33
2019-05-01T01:38:02.805Z,31.81
2019-05-01T01:39:02.780Z,30.52
2019-05-01T01:40:02.812Z,33.49
2019-05-01T01:41:02.846Z,33.49
2019-05-01T01:42:02.628Z,38.96
2019-05-01T01:43:02.573Z,33.98
2019-05-01T01:44:03.654Z,32.34
2019-05-01T01:45:03.561Z,46.64
2019-05-01T01:46:03.645Z,35.08
2019-05-01T01:47:03.475Z,33.13
2019-05-01T01:48:03.676Z,30.7
2019-05-01T01:49:03.209Z,30.37
2019-05-01T01:50:03.780Z,29.63
2019-05-01T01:51:03.205Z,29
2019-05-01T01:52:03.293Z,29.07
2019-05-01T01:53:03.065Z,30.85
2019-05-01T01:54:03.015Z,29.21
2019-05-01T01:55:03.392Z,34.35
2019-05-01T01:56:02.988Z,28.79
2019-05-01T01:57:03.289Z,28.85
2019-05-01T01:58:03.019Z,31.52
2019-05-01T01:59:02.944Z,29.17
2019-05-01T02:00:03.257Z,30.11
2019-05-01T02:01:09.162Z,28.19
2019-05-01T02:02:02.943Z,30.47
2019-05-01T02:03:02.645Z,30.5
2019-05-01T02:04:02.665Z,26.8
2019-05-01T02:05:02.862Z,36.92
2019-05-01T02:06:03.691Z,30.07
2019-05-01T02:07:03.537Z,31.29
2019-05-01T02:08:02.739Z,35.58
2019-05-01T02:09:03.542Z,29
2019-05-01T02:10:03.758Z,33.49
2019-05-01T02:11:03.329Z,33.11
2019-05-01T02:12:03.740Z,30.73
2019-05-01T02:13:03.336Z,36.04
2019-05-01T02:14:03.419Z,36.9
2019-05-01T02:15:03.434Z,28.69
2019-05-01T02:16:03.062Z,28.04
2019-05-01T02:17:03.481Z,32.14
2019-05-01T02:18:03.375Z,29.86
2019-05-01T02:19:03.424Z,33.64
2019-05-01T02:20:03.149Z,31.11
2019-05-01T02:21:03.102Z,34.54
2019-05-01T02:22:03.173Z,31.25
2019-05-01T02:23:03.299Z,33.55
2019-05-01T02:24:03.130Z,32.94
2019-05-01T02:25:03.325Z,29.15
2019-05-01T02:26:03.052Z,30.35
2019-05-01T02:27:01.619Z,30.69
2019-05-01T02:28:02.869Z,32.01
2019-05-01T02:29:02.819Z,32.01
2019-05-01T02:30:03.929Z,33.32
2019-05-01T02:31:02.856Z,28.93
2019-05-01T02:32:02.652Z,32.45
2019-05-01T02:33:02.836Z,33.22
2019-05-01T02:34:02.914Z,30.23
2019-05-01T02:35:02.811Z,31.72
2019-05-01T02:36:03.561Z,30.24
2019-05-01T02:37:03.608Z,38.39
2019-05-01T02:38:03.484Z,29.24
2019-05-01T02:39:03.659Z,30.88
2019-05-01T02:40:03.361Z,35.52
2019-05-01T02:41:03.572Z,32.38
2019-05-01T02:42:03.397Z,33.69
2019-05-01T02:43:03.547Z,30.57
2019-05-01T02:44:03.472Z,32.76
2019-05-01T02:45:03.637Z,30.28
2019-05-01T02:46:03.670Z,34.87
2019-05-01T02:47:03.310Z,32.28
2019-05-01T02:48:03.320Z,31.42
2019-05-01T02:49:03.317Z,35.47
2019-05-01T02:50:03.373Z,28.55
2019-05-01T02:51:03.159Z,29.75
2019-05-01T02:52:02.907Z,29.66
2019-05-01T02:53:03.250Z,32.15
2019-05-01T02:54:03.190Z,35.91
2019-05-01T02:55:02.992Z,30.11
2019-05-01T02:56:03.113Z,32.78
2019-05-01T02:57:03.048Z,30.86
2019-05-01T02:58:03.481Z,31.14
2019-05-01T02:59:03.078Z,34.49
2019-05-01T03:00:03.454Z,34.05
2019-05-01T03:01:03.162Z,35.73
2019-05-01T03:02:03.322Z,36.28
2019-05-01T03:03:02.967Z,32.68
2019-05-01T03:04:02.903Z,34.76
2019-05-01T03:05:02.928Z,33.16
2019-05-01T03:06:02.930Z,32.39
2019-05-01T03:07:03.129Z,32.64
2019-05-01T03:08:03.526Z,30.68
2019-05-01T03:09:03.124Z,37.11
2019-05-01T03:10:03.028Z,31.57
2019-05-01T03:11:02.658Z,36.01
2019-05-01T03:12:02.982Z,35.04
2019-05-01T03:13:03.664Z,30.42
2019-05-01T03:14:02.859Z,37.32
2019-05-01T03:15:03.005Z,28.65
2019-05-01T03:16:02.791Z,35.15
2019-05-01T03:17:02.535Z,35.15
2019-05-01T03:18:02.938Z,31.05
2019-05-01T03:19:03.622Z,29.95
2019-05-01T03:20:03.716Z,29.95
2019-05-01T03:21:03.565Z,34.26
2019-05-01T03:22:03.507Z,29.76
2019-05-01T03:23:03.510Z,29.76
2019-05-01T03:24:02.985Z,32.76
2019-05-01T03:25:03.632Z,29.79
2019-05-01T03:26:03.331Z,28.95
2019-05-01T03:27:03.396Z,31.17
2019-05-01T03:28:03.301Z,32.18
2019-05-01T03:29:03.362Z,32.49
2019-05-01T03:30:03.317Z,31.54
2019-05-01T03:31:03.276Z,33.56
2019-05-01T03:32:16.416Z,36.92
2019-05-01T03:33:03.277Z,34.04
2019-05-01T03:34:02.884Z,30.57
2019-05-01T03:35:02.923Z,34.64
2019-05-01T03:36:03.058Z,31.39
2019-05-01T03:37:02.784Z,31.22
2019-05-01T03:38:02.923Z,31.99
2019-05-01T03:39:03.476Z,30.22
2019-05-01T03:40:02.766Z,36.13
2019-05-01T03:41:04.309Z,29.86
2019-05-01T03:42:02.794Z,31.01
2019-05-01T03:43:03.553Z,28.19
2019-05-01T03:44:03.530Z,29.65
2019-05-01T03:45:03.676Z,32.91
2019-05-01T03:46:03.518Z,32.94
2019-05-01T03:47:03.457Z,28.05
2019-05-01T03:48:03.422Z,29.43
2019-05-01T03:49:03.452Z,31.05
2019-05-01T03:50:03.254Z,34.54
2019-05-01T03:51:03.363Z,31.18
2019-05-01T03:52:03.383Z,33.45
2019-05-01T03:53:03.334Z,30.29
2019-05-01T03:54:03.130Z,32.36
2019-05-01T03:55:03.178Z,33.3
2019-05-01T03:56:03.029Z,33.75
2019-05-01T03:57:02.993Z,34.39
2019-05-01T03:58:03.255Z,42.51
2019-05-01T03:59:02.967Z,44.1
2019-05-01T04:00:03.132Z,44.46
2019-05-01T04:01:02.760Z,42.84
2019-05-01T04:02:02.784Z,47.73
2019-05-01T04:03:03.708Z,45.62
2019-05-01T04:04:02.895Z,41.02
2019-05-01T04:05:03.120Z,41.02
2019-05-01T04:06:03.032Z,40.61
2019-05-01T04:07:02.875Z,40.3
2019-05-01T04:08:03.738Z,44.59
2019-05-01T04:09:03.016Z,44.59
2019-05-01T04:10:03.692Z,38.49
2019-05-01T04:11:03.296Z,36.52
2019-05-01T04:12:03.380Z,36.52
2019-05-01T04:13:03.680Z,40.6
2019-05-01T04:14:03.552Z,43.38
2019-05-01T04:15:03.271Z,43.54
2019-05-01T04:16:03.569Z,42.48
2019-05-01T04:17:03.447Z,39.72
2019-05-01T04:18:03.525Z,47.79
2019-05-01T04:19:03.235Z,41.28
2019-05-01T04:20:03.366Z,45.06
2019-05-01T04:21:03.191Z,38.24
2019-05-01T04:22:03.261Z,39.27
2019-05-01T04:23:03.216Z,39.85
2019-05-01T04:24:03.248Z,43.28
2019-05-01T04:25:03.263Z,41.4
2019-05-01T04:26:03.031Z,41.52
2019-05-01T04:27:02.712Z,40.44
2019-05-01T04:28:03.193Z,41.86
2019-05-01T04:29:03.095Z,40.59
2019-05-01T04:30:02.877Z,47.61
2019-05-01T04:31:03.680Z,44.52
2019-05-01T04:32:02.689Z,43.47
2019-05-01T04:33:02.877Z,41.32
2019-05-01T04:34:04.024Z,41.45
2019-05-01T04:35:03.687Z,41.83
2019-05-01T04:36:03.817Z,40.66
2019-05-01T04:37:03.576Z,36.84
2019-05-01T04:38:03.410Z,39.86
2019-05-01T04:39:03.830Z,39.74
2019-05-01T04:40:03.485Z,39.63
2019-05-01T04:41:03.643Z,43.01
2019-05-01T04:42:03.511Z,38.91
2019-05-01T04:43:03.691Z,35.09
2019-05-01T04:44:03.226Z,40.01
2019-05-01T04:45:03.551Z,49.95
2019-05-01T04:46:03.166Z,37.47
2019-05-01T04:47:03.322Z,41.28
2019-05-01T04:48:03.255Z,41.56
2019-05-01T04:49:03.120Z,39.09
2019-05-01T04:50:03.016Z,39.71
2019-05-01T04:51:03.070Z,37.96
2019-05-01T04:52:03.082Z,39.31
2019-05-01T04:53:02.958Z,39.31
2019-05-01T04:54:03.185Z,39.17
2019-05-01T04:55:03.059Z,38.55
2019-05-01T04:56:03.407Z,38.55
2019-05-01T04:57:03.217Z,44.05
2019-05-01T04:58:01.932Z,43.55
2019-05-01T04:59:03.283Z,43.55
2019-05-01T05:00:03.234Z,41.49
2019-05-01T05:01:03.023Z,41.62
2019-05-01T05:02:02.916Z,44.15
2019-05-01T05:03:04.699Z,42.32
2019-05-01T05:04:02.922Z,39.86
2019-05-01T05:05:02.956Z,44.36
2019-05-01T05:06:03.676Z,41.24
2019-05-01T05:07:03.150Z,43.12
2019-05-01T05:08:03.659Z,48.25
2019-05-01T05:09:02.766Z,39.71
2019-05-01T05:10:02.963Z,44.79
2019-05-01T05:11:02.879Z,43.55
2019-05-01T05:12:03.876Z,47.62
2019-05-01T05:13:03.492Z,45.28
2019-05-01T05:14:03.695Z,43.94
2019-05-01T05:15:03.804Z,42.49
2019-05-01T05:16:03.484Z,45.12
2019-05-01T05:17:03.452Z,44.29
2019-05-01T05:18:03.357Z,40.07
2019-05-01T05:19:03.334Z,44.89
2019-05-01T05:20:03.375Z,42.58
2019-05-01T05:21:03.007Z,39.56
2019-05-01T05:22:03.337Z,42.05
2019-05-01T05:23:03.273Z,41.57
2019-05-01T05:24:03.189Z,41.56
2019-05-01T05:25:03.447Z,42.93
2019-05-01T05:26:02.880Z,40.3
2019-05-01T05:27:03.212Z,42.38
2019-05-01T05:28:02.790Z,40.45
2019-05-01T05:29:02.752Z,46.37
2019-05-01T05:30:02.969Z,39.25
2019-05-01T05:31:03.314Z,41.21
2019-05-01T05:32:02.952Z,40.24
2019-05-01T05:33:03.166Z,43.66
2019-05-01T05:34:03.073Z,40.13
2019-05-01T05:35:03.227Z,36.1
2019-05-01T05:36:02.829Z,46.14
2019-05-01T05:37:03.722Z,39.21
2019-05-01T05:38:02.901Z,42.28
2019-05-01T05:39:03.623Z,42.45
2019-05-01T05:40:03.745Z,43.35
2019-05-01T05:41:03.734Z,41.35
2019-05-01T05:42:03.151Z,38.02
2019-05-01T05:43:03.514Z,38.58
2019-05-01T05:44:02.842Z,38.58
2019-05-01T05:45:03.774Z,36.34
2019-05-01T05:46:03.578Z,37.64
2019-05-01T05:47:03.656Z,37.64
2019-05-01T05:48:03.623Z,36.16
2019-05-01T05:49:03.544Z,36.16
2019-05-01T05:50:03.592Z,38.72
2019-05-01T05:51:03.407Z,34.81
2019-05-01T05:52:03.396Z,38.41
2019-05-01T05:53:03.311Z,43.03
2019-05-01T05:54:03.328Z,41.17
2019-05-01T05:55:03.673Z,37.14
2019-05-01T05:56:02.993Z,36.25
2019-05-01T05:57:03.072Z,40.28
2019-05-01T05:58:02.887Z,43.69
2019-05-01T05:59:02.949Z,36.07
2019-05-01T06:00:03.027Z,35.72
2019-05-01T06:01:03.010Z,38.93
2019-05-01T06:02:03.209Z,41.72
2019-05-01T06:03:03.814Z,34.67
2019-05-01T06:04:02.860Z,38.25
2019-05-01T06:05:02.736Z,37.14
2019-05-01T06:06:03.146Z,38.48
2019-05-01T06:07:03.550Z,36.94
2019-05-01T06:08:03.577Z,36.38
2019-05-01T06:09:03.698Z,37.7
2019-05-01T06:10:03.596Z,30.52
2019-05-01T06:11:03.484Z,38.72
2019-05-01T06:12:04.802Z,38.37
2019-05-01T06:13:03.432Z,37.1
2019-05-01T06:14:03.574Z,33.99
2019-05-01T06:15:06.273Z,35.74
2019-05-01T06:16:03.536Z,34.04
2019-05-01T06:17:03.368Z,35.78
2019-05-01T06:18:04.013Z,34.88
2019-05-01T06:19:03.120Z,37.87
2019-05-01T06:20:02.930Z,33.02
2019-05-01T06:21:03.934Z,33.33
2019-05-01T06:22:04.836Z,42.31
2019-05-01T06:23:03.245Z,34.58
2019-05-01T06:24:06.438Z,37.23
2019-05-01T06:25:03.176Z,39.46
2019-05-01T06:26:02.952Z,34.69
2019-05-01T06:27:03.061Z,33.94
2019-05-01T06:28:02.821Z,36.66
2019-05-01T06:29:03.541Z,35.44
2019-05-01T06:30:06.442Z,35.26
2019-05-01T06:31:03.594Z,37.04
2019-05-01T06:32:03.610Z,37.45
2019-05-01T06:33:04.012Z,40.07
2019-05-01T06:34:03.561Z,39.25
2019-05-01T06:35:04.564Z,35.3
2019-05-01T06:36:03.537Z,35.62
2019-05-01T06:37:03.426Z,35.62
2019-05-01T06:38:03.499Z,38.94
2019-05-01T06:39:06.742Z,35.99
2019-05-01T06:40:03.449Z,35.99
2019-05-01T06:41:03.374Z,34.32
2019-05-01T06:42:02.636Z,33.24
2019-05-01T06:43:03.089Z,33.24
2019-05-01T06:44:04.084Z,32.94
2019-05-01T06:45:03.267Z,34.52
2019-05-01T06:46:02.932Z,35.92
2019-05-01T06:47:03.147Z,35.3
2019-05-01T06:48:02.748Z,33.66
2019-05-01T06:49:03.002Z,34.45
2019-05-01T06:50:05.827Z,42.78
2019-05-01T06:51:02.686Z,34.79
2019-05-01T06:52:02.884Z,31.91
2019-05-01T06:53:04.517Z,38.48
2019-05-01T06:54:02.899Z,36.44
2019-05-01T06:55:03.550Z,36.31
2019-05-01T06:56:03.490Z,35.54
2019-05-01T06:57:03.589Z,32.88
2019-05-01T06:58:03.384Z,31.79
2019-05-01T06:59:03.507Z,33.32
2019-05-01T07:00:08.023Z,32.83
2019-05-01T07:01:03.362Z,35.66
2019-05-01T07:02:03.724Z,34.45
2019-05-01T07:03:05.917Z,38.05
2019-05-01T07:04:04.098Z,34.38
2019-05-01T07:05:03.637Z,31.94
2019-05-01T07:06:13.722Z,31.44
2019-05-01T07:07:06.583Z,36.08
2019-05-01T07:08:03.481Z,31.66
2019-05-01T07:09:06.888Z,32.26
2019-05-01T07:10:03.026Z,35.36
2019-05-01T07:11:03.160Z,30.92
2019-05-01T07:12:03.149Z,35.06
2019-05-01T07:13:04.779Z,33.83
2019-05-01T07:14:02.986Z,33.39
2019-05-01T07:15:03.460Z,37.12
2019-05-01T07:16:03.358Z,32.67
2019-05-01T07:17:03.262Z,36.11
2019-05-01T07:18:02.958Z,30.13
2019-05-01T07:19:05.961Z,33.61
2019-05-01T07:20:03.026Z,34.42
2019-05-01T07:21:03.257Z,34.42
2019-05-01T07:22:06.291Z,29.69
2019-05-01T07:23:02.750Z,31.64
2019-05-01T07:24:02.847Z,31.64
2019-05-01T07:25:03.880Z,34.01
2019-05-01T07:26:03.159Z,34.01
2019-05-01T07:27:03.672Z,32.94
2019-05-01T07:28:02.746Z,32.81
2019-05-01T07:29:05.973Z,29.08
2019-05-01T07:30:02.678Z,39.14
2019-05-01T07:31:05.126Z,30.9
2019-05-01T07:32:06.255Z,31.92
2019-05-01T07:33:03.543Z,30.95
2019-05-01T07:34:15.498Z,32.42
2019-05-01T07:35:04.023Z,33.01
2019-05-01T07:36:06.909Z,34.28
2019-05-01T07:37:03.399Z,31.05
2019-05-01T07:38:03.440Z,35.37
2019-05-01T07:39:03.534Z,31.7
2019-05-01T07:40:03.221Z,35.38
2019-05-01T07:41:05.068Z,31.49
2019-05-01T07:42:03.464Z,36.59
2019-05-01T07:43:03.165Z,26.99
2019-05-01T07:44:02.881Z,30.44
2019-05-01T07:45:03.754Z,29.31
2019-05-01T07:46:03.201Z,34.59
2019-05-01T07:47:03.297Z,32.51
2019-05-01T07:48:05.534Z,28.82
2019-05-01T07:49:03.187Z,36.29
2019-05-01T07:50:03.490Z,30.62
2019-05-01T07:51:06.813Z,29.52
2019-05-01T07:52:03.431Z,36.55
2019-05-01T07:53:03.147Z,36.17
2019-05-01T07:54:03.622Z,31.86
2019-05-01T07:55:02.971Z,28.95
2019-05-01T07:56:03.258Z,27.76
2019-05-01T07:57:04.611Z,30.56
2019-05-01T07:58:02.964Z,31.65
2019-05-01T07:59:02.684Z,29.75
2019-05-01T08:00:05.107Z,31.22
2019-05-01T08:01:03.749Z,31.24
2019-05-01T08:02:03.623Z,34.89
2019-05-01T08:03:07.115Z,28.71
2019-05-01T08:04:02.383Z,27.68
2019-05-01T08:05:09.342Z,29.01
2019-05-01T08:06:03.116Z,27.43
2019-05-01T08:07:03.665Z,31.08
2019-05-01T08:08:07.797Z,36.15
2019-05-01T08:09:03.657Z,38.09
2019-05-01T08:10:03.649Z,34.03
2019-05-01T08:11:04.889Z,31.67
2019-05-01T08:12:03.524Z,32.19
2019-05-01T08:13:03.313Z,28.4
2019-05-01T08:14:07.414Z,27.39
2019-05-01T08:15:03.560Z,27.39
2019-05-01T08:16:06.994Z,32.32
2019-05-01T08:17:03.305Z,32.32
2019-05-01T08:18:03.344Z,31.19
2019-05-01T08:19:03.981Z,31.71
2019-05-01T08:20:03.281Z,29.82
2019-05-01T08:21:03.190Z,32.19
2019-05-01T08:22:03.186Z,28.99
2019-05-01T08:23:03.353Z,26.76
2019-05-01T08:24:03.154Z,27.91
2019-05-01T08:25:02.769Z,27.58
2019-05-01T08:26:03.842Z,31.86
2019-05-01T08:27:03.104Z,30.5
2019-05-01T08:28:03.633Z,29.93
2019-05-01T08:29:06.568Z,26.57
2019-05-01T08:30:02.919Z,29.55
2019-05-01T08:31:03.057Z,26.7
2019-05-01T08:32:04.629Z,24.55
2019-05-01T08:33:03.659Z,27.87
2019-05-01T08:34:03.555Z,27.9
2019-05-01T08:35:03.583Z,23.96
2019-05-01T08:36:06.692Z,29.4
2019-05-01T08:37:06.384Z,34.42
2019-05-01T08:38:03.429Z,31.99
2019-05-01T08:39:04.854Z,33.58
2019-05-01T08:40:03.421Z,27.7
2019-05-01T08:41:03.439Z,30.05
2019-05-01T08:42:06.929Z,26.56
2019-05-01T08:43:03.364Z,29.14
2019-05-01T08:44:03.549Z,31.15
2019-05-01T08:45:04.952Z,28.14
2019-05-01T08:46:03.127Z,27.04
2019-05-01T08:47:02.923Z,28.67
2019-05-01T08:48:03.095Z,28.46
2019-05-01T08:49:06.718Z,28.46
2019-05-01T08:50:03.373Z,28.83
2019-05-01T08:51:02.966Z,31.98
2019-05-01T08:52:04.694Z,27.74
2019-05-01T08:53:02.541Z,30.96
2019-05-01T08:54:03.334Z,31.49
2019-05-01T08:55:04.185Z,30.19
2019-05-01T08:56:02.865Z,28.88
2019-05-01T08:57:03.004Z,32.29
2019-05-01T08:58:02.822Z,30.79
2019-05-01T08:59:03.014Z,28.18
2019-05-01T09:00:03.867Z,31.59
2019-05-01T09:01:02.772Z,31.59
2019-05-01T09:02:09.221Z,28.23
2019-05-01T09:03:08.342Z,30.58
2019-05-01T09:04:12.539Z,30.58
2019-05-01T09:05:07.074Z,31.69
2019-05-01T09:06:03.410Z,29.65
2019-05-01T09:07:03.546Z,29.65
2019-05-01T09:08:03.270Z,30.55
2019-05-01T09:09:07.965Z,31.38
2019-05-01T09:10:03.180Z,30.72
2019-05-01T09:11:03.163Z,30.32
2019-05-01T09:12:06.717Z,28.54
2019-05-01T09:13:03.184Z,26.35
2019-05-01T09:14:03.506Z,28.88
2019-05-01T09:15:07.023Z,34
2019-05-01T09:16:03.405Z,27.7
2019-05-01T09:17:03.075Z,26.37
2019-05-01T09:18:03.235Z,25.53
2019-05-01T09:19:03.278Z,27.94
2019-05-01T09:20:03.412Z,27.71
2019-05-01T09:21:03.347Z,26.89
2019-05-01T09:22:03.201Z,31.04
2019-05-01T09:23:03.308Z,26.36
2019-05-01T09:24:02.793Z,26.36
2019-05-01T09:25:03.690Z,24.9
2019-05-01T09:26:06.264Z,25.32
2019-05-01T09:27:02.897Z,23.31
2019-05-01T09:28:04.016Z,23.47
2019-05-01T09:29:02.922Z,23.08
2019-05-01T09:30:04.494Z,22.99
2019-05-01T09:31:03.349Z,26.56
2019-05-01T09:32:04.944Z,24.63
2019-05-01T09:33:02.987Z,23.41
2019-05-01T09:34:03.513Z,22.81
2019-05-01T09:35:15.018Z,23.65
2019-05-01T09:36:03.330Z,21.15
2019-05-01T09:37:03.141Z,23.48
2019-05-01T09:38:03.525Z,22.87
2019-05-01T09:39:03.760Z,21.81
2019-05-01T09:40:03.991Z,21.09
2019-05-01T09:41:03.401Z,24.23
2019-05-01T09:42:06.381Z,23.68
2019-05-01T09:43:03.518Z,19.68
2019-05-01T09:44:05.703Z,22.32
2019-05-01T09:45:03.312Z,24.77
2019-05-01T09:46:03.431Z,25.14
2019-05-01T09:47:03.283Z,24.71
2019-05-01T09:48:02.137Z,21.71
2019-05-01T09:49:03.417Z,32.19
2019-05-01T09:50:03.423Z,23.71
2019-05-01T09:51:05.355Z,23.34
2019-05-01T09:52:02.954Z,23.34
2019-05-01T09:53:03.065Z,25.59
2019-05-01T09:54:05.532Z,25.59
2019-05-01T09:55:02.943Z,27.67
2019-05-01T09:56:03.360Z,25.46
2019-05-01T09:57:03.085Z,23.61
2019-05-01T09:58:03.014Z,24.17
2019-05-01T09:59:02.533Z,21.7
2019-05-01T10:00:02.596Z,22.61
2019-05-01T10:01:03.119Z,19.49
2019-05-01T10:02:07.733Z,26.35
2019-05-01T10:03:03.008Z,21.68
2019-05-01T10:04:05.574Z,20.1
2019-05-01T10:05:06.621Z,23.11
2019-05-01T10:06:03.670Z,24.42
2019-05-01T10:07:03.286Z,32.04
2019-05-01T10:08:04.026Z,25.93
2019-05-01T10:09:03.565Z,23.51
2019-05-01T10:10:03.430Z,26.11
2019-05-01T10:11:05.057Z,22.08
2019-05-01T10:12:03.306Z,20.86
2019-05-01T10:13:03.167Z,20.45
2019-05-01T10:14:04.174Z,22.83
2019-05-01T10:15:03.681Z,21.14
2019-05-01T10:16:03.127Z,17.45
2019-05-01T10:17:03.295Z,17.23
2019-05-01T10:18:03.206Z,20.32
2019-05-01T10:19:03.179Z,22.65
2019-05-01T10:20:02.791Z,20.53
2019-05-01T10:21:02.906Z,21.44
2019-05-01T10:22:03.738Z,19.71
2019-05-01T10:23:02.707Z,21.83
2019-05-01T10:24:02.781Z,21.29
2019-05-01T10:25:02.723Z,29.24
2019-05-01T10:26:02.985Z,19.86
2019-05-01T10:27:02.737Z,23.43
2019-05-01T10:28:07.042Z,23.11
2019-05-01T10:29:03.288Z,21.5
2019-05-01T10:30:03.489Z,24.69
2019-05-01T10:31:06.865Z,22.39
2019-05-01T10:32:03.183Z,25
2019-05-01T10:33:03.316Z,21.9
2019-05-01T10:34:07.537Z,21.9
2019-05-01T10:35:03.236Z,21.53
2019-05-01T10:36:03.309Z,23.64
2019-05-01T10:37:03.577Z,23.64
2019-05-01T10:38:04.642Z,19.69
2019-05-01T10:39:03.279Z,23.38
2019-05-01T10:40:03.484Z,25.96
2019-05-01T10:41:04.128Z,21.24
2019-05-01T10:42:03.048Z,22.14
2019-05-01T10:43:02.892Z,22.49
2019-05-01T10:44:03.096Z,21.99
2019-05-01T10:45:03.305Z,22.96
2019-05-01T10:46:02.508Z,23.06
2019-05-01T10:47:02.787Z,20.31
2019-05-01T10:48:02.857Z,19.52
2019-05-01T10:49:02.789Z,20.24
2019-05-01T10:50:03.979Z,26.97
2019-05-01T10:51:03.499Z,21.66
2019-05-01T10:52:13.542Z,25.6
2019-05-01T10:53:03.379Z,22.65
2019-05-01T10:54:03.527Z,20.79
2019-05-01T10:55:03.712Z,19.38
2019-05-01T10:56:03.491Z,23.1
2019-05-01T10:57:04.554Z,20.89
2019-05-01T10:58:03.916Z,19.67
2019-05-01T10:59:03.306Z,20.71
2019-05-01T11:00:03.681Z,20.08
2019-05-01T11:01:03.478Z,21.98
2019-05-01T11:02:03.447Z,20.68
2019-05-01T11:03:03.153Z,21.14
2019-05-01T11:04:03.254Z,25.01
2019-05-01T11:05:03.362Z,31.64
2019-05-01T11:06:02.825Z,22.94
2019-05-01T11:07:03.342Z,23.42
2019-05-01T11:08:03.178Z,24.83
2019-05-01T11:09:03.269Z,24.12
2019-05-01T11:10:02.844Z,21.78
2019-05-01T11:11:02.967Z,24.01
2019-05-01T11:12:03.335Z,26.49
2019-05-01T11:13:03.107Z,21.98
2019-05-01T11:14:03.787Z,21.31
2019-05-01T11:15:03.886Z,21.26
2019-05-01T11:16:02.933Z,19.91
2019-05-01T11:17:03.364Z,24.94
2019-05-01T11:18:03.028Z,24.94
2019-05-01T11:19:03.706Z,21.91
2019-05-01T11:20:02.880Z,21.91
2019-05-01T11:21:03.578Z,23.26
2019-05-01T11:22:03.557Z,21.94
2019-05-01T11:23:03.462Z,20.82
2019-05-01T11:24:03.493Z,18.8
2019-05-01T11:25:03.572Z,22.86
2019-05-01T11:26:03.208Z,18.1
2019-05-01T11:27:03.268Z,25.55
2019-05-01T11:28:03.162Z,18.21
2019-05-01T11:29:03.289Z,23.09
2019-05-01T11:30:03.164Z,20.4
2019-05-01T11:31:02.871Z,22.43
2019-05-01T11:32:03.090Z,22
2019-05-01T11:33:03.374Z,21.5
2019-05-01T11:34:02.929Z,22.51
2019-05-01T11:35:03.062Z,23.54
2019-05-01T11:36:09.424Z,18.84
2019-05-01T11:37:02.938Z,18.64
2019-05-01T11:38:04.191Z,20.05
2019-05-01T11:39:03.702Z,20.69
2019-05-01T11:40:03.112Z,19.55
2019-05-01T11:41:03.541Z,19.55
2019-05-01T11:42:02.935Z,20.72
2019-05-01T11:43:03.532Z,19.82
2019-05-01T11:44:02.994Z,16.62
2019-05-01T11:45:03.611Z,25.36
2019-05-01T11:46:03.753Z,19.81
2019-05-01T11:47:03.687Z,21.46
2019-05-01T11:48:03.343Z,19.2
2019-05-01T11:49:03.774Z,19.48
2019-05-01T11:50:03.616Z,24.14
2019-05-01T11:51:03.602Z,17.65
2019-05-01T11:52:03.253Z,25.92
2019-05-01T11:53:03.598Z,20.52
2019-05-01T11:54:03.017Z,20.42
2019-05-01T11:55:03.412Z,19.61
2019-05-01T11:56:03.398Z,19.73
2019-05-01T11:57:03.307Z,19.73
2019-05-01T11:58:03.401Z,17.09
2019-05-01T11:59:03.134Z,18.14
2019-05-01T12:00:03.169Z,18.14
2019-05-01T12:01:03.190Z,16.36
2019-05-01T12:02:03.497Z,17.04
2019-05-01T12:03:02.957Z,17.04
2019-05-01T12:04:02.889Z,18.56
2019-05-01T12:05:02.974Z,24.62
2019-05-01T12:06:02.909Z,19.72
2019-05-01T12:07:02.819Z,18.13
2019-05-01T12:08:03.117Z,19.37
2019-05-01T12:09:02.843Z,16.34
2019-05-01T12:10:03.192Z,20.56
2019-05-01T12:11:03.066Z,15.55
2019-05-01T12:12:03.093Z,20.05
2019-05-01T12:13:03.275Z,22.62
2019-05-01T12:14:03.093Z,15.61
2019-05-01T12:15:03.361Z,20.18
2019-05-01T12:16:03.143Z,18.09
2019-05-01T12:17:03.432Z,26.15
2019-05-01T12:18:02.959Z,17.02
2019-05-01T12:19:02.777Z,23.92
2019-05-01T12:20:02.955Z,16.29
2019-05-01T12:21:02.851Z,18.56
2019-05-01T12:22:02.549Z,16.97
2019-05-01T12:23:03.267Z,18.15
2019-05-01T12:24:02.941Z,19.46
2019-05-01T12:25:03.140Z,21.13
2019-05-01T12:26:03.022Z,22.7
2019-05-01T12:27:02.648Z,21.79
2019-05-01T12:28:02.973Z,18.44
2019-05-01T12:29:03.782Z,23.48
2019-05-01T12:30:02.873Z,20.75
2019-05-01T12:31:03.725Z,20.62
2019-05-01T12:32:03.694Z,17.74
2019-05-01T12:33:03.261Z,25.68
2019-05-01T12:34:03.594Z,18.94
2019-05-01T12:35:03.659Z,18.57
2019-05-01T12:36:03.437Z,19.86
2019-05-01T12:37:03.404Z,18.49
2019-05-01T12:38:03.530Z,21.95
2019-05-01T12:39:03.611Z,21.95
2019-05-01T12:40:03.283Z,19.81
2019-05-01T12:41:03.393Z,19.81
2019-05-01T12:42:03.108Z,17.46
2019-05-01T12:43:03.162Z,16.19
2019-05-01T12:44:03.106Z,22.22
2019-05-01T12:45:03.106Z,17.75
2019-05-01T12:46:03.145Z,20.85
2019-05-01T12:47:03.120Z,20.09
2019-05-01T12:48:03.344Z,20.93
2019-05-01T12:49:03.258Z,18.75
2019-05-01T12:50:03.201Z,20.05
2019-05-01T12:51:02.882Z,22.19
2019-05-01T12:52:10.084Z,16.95
2019-05-01T12:53:02.957Z,18.06
2019-05-01T12:54:03.776Z,19.08